createdAt,value
2018-09-22T00:00:30.624Z,2.47
2018-09-22T00:02:59.684Z,1.27
2018-09-22T00:05:28.761Z,1.33
2018-09-22T00:07:57.960Z,1.73
2018-09-22T00:10:27.120Z,1.63
2018-09-22T00:12:56.397Z,1.20
2018-09-22T00:15:25.614Z,1.40
2018-09-22T00:17:54.848Z,1.00
2018-09-22T00:20:23.567Z,1.60
2018-09-22T00:22:53.240Z,1.50
2018-09-22T00:25:22.509Z,1.93
2018-09-22T00:27:51.786Z,1.80
2018-09-22T00:30:20.995Z,2.07
2018-09-22T00:32:50.134Z,1.20
2018-09-22T00:35:19.853Z,1.73
2018-09-22T00:37:48.956Z,1.50
2018-09-22T00:40:18.119Z,1.50
2018-09-22T00:42:48.099Z,1.47
2018-09-22T00:45:17.622Z,1.33
2018-09-22T00:47:46.724Z,1.30
2018-09-22T00:50:16.380Z,1.67
2018-09-22T00:52:46.137Z,1.30
2018-09-22T00:55:15.399Z,1.30
2018-09-22T00:57:45.056Z,1.33
2018-09-22T01:00:14.132Z,1.80
2018-09-22T01:02:43.411Z,1.70
2018-09-22T01:05:12.476Z,1.63
2018-09-22T01:07:41.616Z,2.83
2018-09-22T01:10:10.713Z,1.23
2018-09-22T01:12:39.932Z,1.53
2018-09-22T01:15:09.711Z,1.30
2018-09-22T01:17:38.764Z,1.07
2018-09-22T01:20:07.873Z,2.10
2018-09-22T01:22:36.639Z,1.60
2018-09-22T01:25:05.961Z,2.27
2018-09-22T01:27:35.340Z,1.60
2018-09-22T01:30:04.649Z,2.50
2018-09-22T01:32:33.744Z,1.67
2018-09-22T01:35:03.531Z,1.70
2018-09-22T01:37:32.626Z,1.60
2018-09-22T01:40:01.693Z,1.87
2018-09-22T01:42:31.375Z,1.87
2018-09-22T01:45:00.435Z,1.80
2018-09-22T01:47:29.949Z,1.73
2018-09-22T01:49:59.044Z,1.83
2018-09-22T01:52:28.198Z,1.20
2018-09-22T01:54:57.211Z,1.93
2018-09-22T01:57:26.263Z,1.77
2018-09-22T01:59:56.091Z,2.13
2018-09-22T02:02:25.293Z,2.03
2018-09-22T02:04:55.180Z,2.07
2018-09-22T02:07:24.241Z,1.70
2018-09-22T02:09:53.329Z,1.30
2018-09-22T02:12:22.446Z,1.80
2018-09-22T02:14:51.527Z,1.97
2018-09-22T02:17:20.568Z,1.50
2018-09-22T02:19:49.778Z,1.50
2018-09-22T02:22:19.165Z,1.67
2018-09-22T02:24:48.308Z,1.87
2018-09-22T02:27:17.388Z,1.60
2018-09-22T02:29:46.648Z,1.40
2018-09-22T02:32:15.793Z,1.67
2018-09-22T02:34:44.893Z,1.53
2018-09-22T02:37:14.126Z,1.43
2018-09-22T02:39:43.343Z,1.83
2018-09-22T02:42:12.445Z,1.60
2018-09-22T02:44:42.250Z,1.27
2018-09-22T02:47:11.289Z,1.50
2018-09-22T02:49:40.354Z,1.50
2018-09-22T02:52:09.426Z,1.70
2018-09-22T02:54:38.521Z,1.40
2018-09-22T02:57:07.544Z,1.77
2018-09-22T02:59:36.729Z,1.70
2018-09-22T03:02:05.848Z,1.63
2018-09-22T03:04:35.565Z,1.80
2018-09-22T03:07:04.658Z,1.90
2018-09-22T03:09:33.751Z,1.50
2018-09-22T03:12:02.830Z,1.70
2018-09-22T03:14:31.595Z,1.17
2018-09-22T03:17:01.099Z,1.43
2018-09-22T03:19:30.172Z,1.97
2018-09-22T03:21:59.269Z,1.70
2018-09-22T03:24:28.790Z,1.50
2018-09-22T03:26:58.382Z,1.70
2018-09-22T03:29:27.437Z,1.20
2018-09-22T03:31:56.519Z,1.30
2018-09-22T03:34:25.817Z,1.50
2018-09-22T03:36:54.869Z,1.47
2018-09-22T03:39:23.930Z,1.23
2018-09-22T03:41:53.016Z,1.50
2018-09-22T03:44:22.125Z,1.03
2018-09-22T03:46:51.166Z,1.00
2018-09-22T03:49:20.416Z,1.20
2018-09-22T03:51:49.505Z,1.20
2018-09-22T03:54:19.176Z,1.67
2018-09-22T03:56:48.896Z,1.33
2018-09-22T03:59:17.956Z,1.40
2018-09-22T04:01:47.059Z,1.70
2018-09-22T04:04:16.247Z,1.30
2018-09-22T04:06:45.309Z,1.60
2018-09-22T04:09:14.354Z,1.70
2018-09-22T04:11:43.537Z,1.30
2018-09-22T04:14:12.660Z,1.23
2018-09-22T04:16:41.697Z,1.93
2018-09-22T04:19:11.352Z,1.10
2018-09-22T04:21:40.486Z,0.97
2018-09-22T04:24:19.161Z,1.53
2018-09-22T04:26:52.075Z,1.20
2018-09-22T04:29:21.828Z,1.40
2018-09-22T04:31:50.967Z,0.83
2018-09-22T04:34:20.301Z,2.00
2018-09-22T04:36:49.447Z,0.90
2018-09-22T04:39:18.616Z,1.33
2018-09-22T04:41:48.716Z,1.57
2018-09-22T04:44:17.764Z,1.73
2018-09-22T04:46:46.863Z,1.30
2018-09-22T04:49:16.386Z,2.00
2018-09-22T04:51:45.665Z,1.73
2018-09-22T04:54:14.817Z,1.80
2018-09-22T04:56:43.910Z,1.30
2018-09-22T04:59:12.956Z,1.60
2018-09-22T05:01:42.144Z,1.10
2018-09-22T05:04:11.971Z,1.37
2018-09-22T05:06:41.068Z,1.60
2018-09-22T05:09:12.636Z,1.40
2018-09-22T05:11:42.036Z,1.80
2018-09-22T05:14:11.310Z,1.27
2018-09-22T05:16:40.368Z,1.50
2018-09-22T05:19:09.431Z,1.30
2018-09-22T05:21:39.333Z,1.60
2018-09-22T05:24:08.379Z,1.40
2018-09-22T05:26:37.611Z,1.40
2018-09-22T05:29:06.673Z,1.33
2018-09-22T05:31:36.469Z,1.40
2018-09-22T05:34:05.545Z,1.47
2018-09-22T05:36:34.706Z,1.60
2018-09-22T05:39:04.356Z,1.30
2018-09-22T05:41:34.860Z,1.83
2018-09-22T05:44:03.866Z,1.63
2018-09-22T05:46:33.299Z,1.70
2018-09-22T05:49:02.620Z,1.47
2018-09-22T05:51:32.477Z,1.60
2018-09-22T05:54:01.658Z,1.60
2018-09-22T05:56:31.494Z,1.80
2018-09-22T05:59:00.686Z,1.63
2018-09-22T06:01:30.551Z,1.50
2018-09-22T06:03:59.916Z,1.30
2018-09-22T06:06:30.249Z,2.40
2018-09-22T06:08:59.451Z,1.93
2018-09-22T06:11:29.023Z,2.23
2018-09-22T06:13:58.144Z,1.73
2018-09-22T06:16:27.244Z,1.63
2018-09-22T06:18:56.456Z,1.60
2018-09-22T06:21:25.814Z,1.27
2018-09-22T06:23:55.241Z,1.30
2018-09-22T06:26:24.333Z,1.70
2018-09-22T06:28:53.567Z,1.20
2018-09-22T06:31:22.626Z,1.67
2018-09-22T06:33:51.696Z,1.30
2018-09-22T06:36:21.556Z,1.47
2018-09-22T06:38:51.168Z,1.87
2018-09-22T06:41:20.221Z,1.53
2018-09-22T06:43:49.545Z,1.40
2018-09-22T06:46:18.791Z,1.70
2018-09-22T06:48:47.783Z,1.70
2018-09-22T06:51:17.072Z,1.80
2018-09-22T06:53:46.952Z,1.90
2018-09-22T06:56:16.100Z,1.70
2018-09-22T06:58:45.173Z,1.80
2018-09-22T07:01:14.353Z,1.50
2018-09-22T07:03:43.458Z,1.20
2018-09-22T07:06:13.312Z,1.30
2018-09-22T07:08:42.565Z,1.73
2018-09-22T07:11:12.394Z,1.27
2018-09-22T07:13:42.153Z,1.40
2018-09-22T07:16:11.249Z,1.30
2018-09-22T07:18:40.312Z,1.13
2018-09-22T07:21:09.849Z,1.10
2018-09-22T07:23:38.950Z,1.10
2018-09-22T07:26:08.068Z,1.20
2018-09-22T07:28:37.226Z,0.93
2018-09-22T07:31:06.735Z,1.30
2018-09-22T07:33:35.820Z,1.20
2018-09-22T07:36:04.958Z,1.40
2018-09-22T07:38:34.194Z,0.93
2018-09-22T07:41:03.306Z,0.97
2018-09-22T07:43:32.415Z,0.80
2018-09-22T07:46:01.541Z,1.20
2018-09-22T07:48:30.653Z,1.20
2018-09-22T07:51:01.294Z,1.20
2018-09-22T07:53:30.662Z,1.53
2018-09-22T07:55:59.764Z,1.40
2018-09-22T07:58:28.917Z,1.10
2018-09-22T08:00:58.731Z,1.10
2018-09-22T08:03:28.010Z,1.20
2018-09-22T08:05:57.226Z,1.17
2018-09-22T08:08:26.596Z,0.97
2018-09-22T08:10:56.467Z,1.60
2018-09-22T08:13:26.161Z,2.30
2018-09-22T08:15:56.545Z,0.70
2018-09-22T08:18:25.669Z,1.00
2018-09-22T08:20:54.865Z,0.83
2018-09-22T08:23:24.000Z,1.40
2018-09-22T08:25:53.692Z,1.00
2018-09-22T08:28:23.160Z,0.93
2018-09-22T08:30:52.881Z,0.93
2018-09-22T08:33:21.968Z,1.27
2018-09-22T08:35:51.847Z,1.50
2018-09-22T08:38:21.071Z,0.90
2018-09-22T08:40:50.217Z,0.80
2018-09-22T08:43:19.910Z,0.80
2018-09-22T08:45:48.992Z,0.87
2018-09-22T08:48:18.510Z,1.33
2018-09-22T08:50:48.365Z,1.20
2018-09-22T08:53:17.814Z,1.13
2018-09-22T08:55:47.209Z,1.07
2018-09-22T08:58:16.385Z,1.20
2018-09-22T09:00:45.485Z,0.93
2018-09-22T09:03:14.605Z,1.30
2018-09-22T09:05:44.300Z,0.70
2018-09-22T09:08:13.502Z,1.00
2018-09-22T09:10:42.724Z,1.13
2018-09-22T09:13:12.511Z,0.77
2018-09-22T09:15:41.551Z,0.90
2018-09-22T09:18:10.647Z,0.87
2018-09-22T09:20:39.917Z,1.13
2018-09-22T09:23:09.828Z,0.83
2018-09-22T09:25:38.960Z,0.90
2018-09-22T09:28:08.869Z,0.73
2018-09-22T09:30:38.056Z,1.10
2018-09-22T09:33:07.172Z,0.90
2018-09-22T09:35:36.857Z,1.20
2018-09-22T09:38:06.192Z,0.70
2018-09-22T09:40:35.287Z,1.43
2018-09-22T09:43:04.434Z,1.07
2018-09-22T09:45:34.313Z,1.33
2018-09-22T09:48:03.499Z,0.90
2018-09-22T09:50:32.712Z,1.60
2018-09-22T09:53:02.957Z,1.20
2018-09-22T09:55:32.050Z,1.23
2018-09-22T09:58:01.297Z,0.73
2018-09-22T10:00:35.761Z,0.90
2018-09-22T10:03:05.064Z,0.83
2018-09-22T10:05:34.356Z,0.70
2018-09-22T10:08:03.444Z,1.70
2018-09-22T10:10:32.523Z,1.37
2018-09-22T10:13:01.744Z,1.10
2018-09-22T10:15:31.370Z,0.90
2018-09-22T10:18:00.460Z,1.13
2018-09-22T10:20:29.500Z,1.30
2018-09-22T10:22:58.768Z,1.20
2018-09-22T10:25:28.003Z,1.17
2018-09-22T10:27:57.158Z,1.10
2018-09-22T10:30:27.043Z,0.73
2018-09-22T10:32:56.233Z,1.07
2018-09-22T10:35:25.488Z,1.47
2018-09-22T10:37:54.582Z,0.77
2018-09-22T10:40:23.847Z,0.97
2018-09-22T10:42:53.405Z,1.07
2018-09-22T10:45:23.084Z,1.10
2018-09-22T10:47:52.390Z,1.20
2018-09-22T10:50:22.121Z,1.20
2018-09-22T10:52:51.548Z,1.40
2018-09-22T10:55:21.181Z,0.80
2018-09-22T10:57:50.274Z,1.50
2018-09-22T11:00:19.369Z,1.20
2018-09-22T11:02:48.531Z,0.87
2018-09-22T11:05:17.573Z,0.90
2018-09-22T11:07:46.682Z,1.10
2018-09-22T11:10:15.867Z,1.10
2018-09-22T11:12:44.978Z,1.00
2018-09-22T11:15:14.271Z,0.83
2018-09-22T11:17:43.309Z,1.13
2018-09-22T11:20:12.509Z,1.70
2018-09-22T11:22:41.605Z,1.07
2018-09-22T11:25:10.672Z,0.97
2018-09-22T11:27:40.322Z,0.83
2018-09-22T11:30:09.781Z,0.80
2018-09-22T11:32:38.914Z,1.07
2018-09-22T11:35:08.005Z,0.77
2018-09-22T11:37:37.625Z,0.90
2018-09-22T11:40:06.728Z,0.80
2018-09-22T11:42:35.867Z,0.90
2018-09-22T11:45:05.120Z,1.30
2018-09-22T11:47:34.250Z,1.00
2018-09-22T11:50:03.561Z,1.30
2018-09-22T11:52:33.935Z,0.67
2018-09-22T11:55:03.038Z,1.37
2018-09-22T11:57:32.683Z,0.77
2018-09-22T12:00:01.994Z,0.97
2018-09-22T12:02:31.066Z,0.70
2018-09-22T12:05:00.168Z,0.90
2018-09-22T12:07:29.320Z,1.90
2018-09-22T12:09:58.516Z,0.90
2018-09-22T12:12:28.380Z,1.23
2018-09-22T12:14:57.448Z,0.80
2018-09-22T12:17:26.521Z,0.80
2018-09-22T12:19:55.630Z,0.77
2018-09-22T12:22:24.661Z,0.67
2018-09-22T12:24:53.912Z,0.93
2018-09-22T12:27:23.072Z,0.80
2018-09-22T12:29:52.409Z,1.10
2018-09-22T12:32:21.641Z,0.67
2018-09-22T12:34:50.791Z,0.87
2018-09-22T12:37:20.440Z,0.70
2018-09-22T12:39:49.516Z,0.80
2018-09-22T12:42:18.746Z,1.13
2018-09-22T12:44:47.808Z,0.93
2018-09-22T12:47:16.924Z,0.83
2018-09-22T12:49:46.173Z,1.27
2018-09-22T12:52:15.313Z,0.60
2018-09-22T12:54:44.458Z,1.00
2018-09-22T12:57:13.582Z,1.07
2018-09-22T12:59:42.785Z,0.90
2018-09-22T13:02:12.145Z,1.37
2018-09-22T13:04:41.257Z,1.10
2018-09-22T13:07:10.464Z,0.90
2018-09-22T13:09:39.601Z,0.80
2018-09-22T13:12:08.673Z,0.57
2018-09-22T13:14:37.952Z,0.70
2018-09-22T13:17:07.120Z,1.90
2018-09-22T13:19:36.264Z,0.90
2018-09-22T13:22:05.347Z,0.60
2018-09-22T13:24:34.456Z,0.90
2018-09-22T13:27:03.728Z,1.37
2018-09-22T13:29:32.864Z,0.60
2018-09-22T13:32:01.984Z,0.60
2018-09-22T13:34:31.153Z,0.70
2018-09-22T13:37:01.163Z,0.83
2018-09-22T13:39:30.260Z,0.83
2018-09-22T13:41:59.366Z,0.70
2018-09-22T13:44:28.560Z,1.10
2018-09-22T13:46:57.951Z,0.67
2018-09-22T13:49:27.091Z,0.80
2018-09-22T13:51:56.964Z,0.70
2018-09-22T13:54:26.236Z,0.83
2018-09-22T13:56:55.327Z,0.73
2018-09-22T13:59:24.423Z,0.87
2018-09-22T14:01:53.501Z,1.00
2018-09-22T14:04:23.796Z,0.83
2018-09-22T14:06:52.941Z,0.70
2018-09-22T14:09:22.806Z,0.80
2018-09-22T14:11:51.885Z,1.10
2018-09-22T14:14:21.065Z,0.57
2018-09-22T14:16:50.209Z,1.00
2018-09-22T14:19:19.280Z,1.00
2018-09-22T14:21:48.518Z,0.87
2018-09-22T14:24:17.785Z,1.23
2018-09-22T14:26:46.976Z,1.17
2018-09-22T14:29:16.159Z,1.10
2018-09-22T14:31:45.978Z,0.80
2018-09-22T14:34:15.166Z,0.73
2018-09-22T14:36:44.257Z,0.83
2018-09-22T14:39:13.720Z,0.73
2018-09-22T14:41:43.046Z,1.27
2018-09-22T14:44:12.156Z,0.63
2018-09-22T14:46:42.081Z,0.97
2018-09-22T14:49:11.717Z,0.80
2018-09-22T14:51:40.794Z,0.80
2018-09-22T14:54:09.977Z,0.70
2018-09-22T14:56:39.591Z,0.60
2018-09-22T14:59:08.746Z,0.80
2018-09-22T15:01:37.912Z,0.70
2018-09-22T15:04:07.847Z,1.00
2018-09-22T15:06:37.637Z,0.77
2018-09-22T15:09:07.841Z,1.00
2018-09-22T15:11:37.009Z,0.67
2018-09-22T15:14:06.068Z,0.77
2018-09-22T15:16:35.182Z,0.73
2018-09-22T15:19:04.337Z,1.03
2018-09-22T15:21:33.415Z,0.73
2018-09-22T15:24:02.530Z,0.63
2018-09-22T15:26:31.826Z,0.90
2018-09-22T15:29:00.941Z,0.90
2018-09-22T15:31:30.741Z,0.83
2018-09-22T15:33:59.796Z,0.83
2018-09-22T15:36:29.085Z,0.97
2018-09-22T15:38:58.205Z,0.70
2018-09-22T15:41:28.021Z,1.00
2018-09-22T15:43:57.124Z,0.80
2018-09-22T15:46:26.269Z,0.87
2018-09-22T15:50:24.785Z,1.00
2018-09-22T15:52:54.244Z,0.93
2018-09-22T15:55:23.417Z,0.57
2018-09-22T15:57:52.493Z,1.13
2018-09-22T16:00:21.557Z,0.93
2018-09-22T16:02:50.693Z,1.17
2018-09-22T16:05:19.909Z,1.40
2018-09-22T16:07:49.142Z,1.60
2018-09-22T16:10:18.234Z,1.00
2018-09-22T16:12:47.372Z,1.40
2018-09-22T16:15:16.420Z,1.47
2018-09-22T16:17:46.241Z,0.97
2018-09-22T16:20:15.418Z,1.00
2018-09-22T16:22:44.495Z,0.80
2018-09-22T16:25:13.644Z,0.80
2018-09-22T16:27:42.892Z,1.00
2018-09-22T16:30:12.325Z,0.83
2018-09-22T16:32:41.401Z,2.13
2018-09-22T16:35:10.628Z,1.27
2018-09-22T16:37:39.720Z,1.30
2018-09-22T16:40:09.009Z,1.10
2018-09-22T16:42:38.093Z,1.07
2018-09-22T16:45:07.836Z,1.27
2018-09-22T16:47:36.903Z,1.00
2018-09-22T16:50:06.087Z,1.20
2018-09-22T16:52:35.235Z,1.30
2018-09-22T16:55:04.552Z,1.20
2018-09-22T16:57:33.644Z,1.30
2018-09-22T17:00:02.750Z,0.90
2018-09-22T17:02:31.539Z,1.47
2018-09-22T17:05:00.501Z,0.90
2018-09-22T17:07:29.731Z,1.20
2018-09-22T17:09:58.820Z,1.23
2018-09-22T17:12:27.945Z,0.90
2018-09-22T17:14:57.040Z,1.30
2018-09-22T17:17:26.656Z,1.30
2018-09-22T17:19:55.755Z,1.30
2018-09-22T17:22:25.002Z,1.57
2018-09-22T17:24:54.084Z,1.40
2018-09-22T17:27:23.231Z,1.37
2018-09-22T17:29:52.988Z,1.20
2018-09-22T17:32:22.286Z,1.00
2018-09-22T17:34:51.485Z,0.80
2018-09-22T17:37:21.353Z,0.90
2018-09-22T17:39:51.077Z,0.80
2018-09-22T17:42:20.315Z,1.27
2018-09-22T17:44:49.392Z,0.97
2018-09-22T17:47:18.505Z,1.10
2018-09-22T17:49:47.554Z,1.07
2018-09-22T17:52:16.585Z,1.00
2018-09-22T17:54:46.270Z,1.30
2018-09-22T17:57:15.348Z,1.10
2018-09-22T17:59:44.551Z,1.07
2018-09-22T18:02:14.036Z,1.20
2018-09-22T18:04:43.828Z,0.80
2018-09-22T18:07:13.035Z,1.20
2018-09-22T18:09:42.124Z,1.13
2018-09-22T18:12:11.192Z,1.17
2018-09-22T18:14:40.272Z,1.07
2018-09-22T18:17:09.505Z,1.13
2018-09-22T18:19:41.031Z,1.00
2018-09-22T18:22:10.102Z,1.17
2018-09-22T18:24:39.241Z,1.13
2018-09-22T18:27:08.458Z,1.50
2018-09-22T18:29:37.760Z,1.40
2018-09-22T18:32:06.959Z,1.13
2018-09-22T18:34:36.056Z,1.10
2018-09-22T18:37:05.344Z,0.90
2018-09-22T18:39:35.060Z,1.37
2018-09-22T18:42:04.152Z,1.63
2018-09-22T18:44:33.365Z,1.00
2018-09-22T18:47:03.168Z,1.20
2018-09-22T18:49:32.455Z,0.73
2018-09-22T18:52:01.563Z,1.00
2018-09-22T18:54:30.630Z,1.17
2018-09-22T18:56:59.852Z,1.20
2018-09-22T18:59:29.916Z,0.97
2018-09-22T19:01:58.997Z,1.80
2018-09-22T19:04:29.217Z,2.67
2018-09-22T19:06:58.279Z,2.20
2018-09-22T19:09:27.391Z,2.00
2018-09-22T19:11:56.486Z,2.27
2018-09-22T19:14:30.913Z,2.17
2018-09-22T19:17:03.376Z,1.40
2018-09-22T19:19:36.163Z,1.50
2018-09-22T19:22:07.013Z,1.40
2018-09-22T19:24:45.222Z,1.53
2018-09-22T19:27:19.656Z,1.27
2018-09-22T19:29:54.502Z,1.60
2018-09-22T19:32:58.849Z,1.17
2018-09-22T19:35:31.452Z,1.20
2018-09-22T19:38:04.423Z,1.60
2018-09-22T19:40:37.829Z,1.30
2018-09-22T19:43:16.232Z,1.10
2018-09-22T19:45:48.037Z,1.00
2018-09-22T19:48:22.050Z,1.43
2018-09-22T19:50:56.115Z,1.70
2018-09-22T19:53:25.224Z,1.23
2018-09-22T19:55:54.296Z,1.97
2018-09-22T19:58:23.502Z,1.43
2018-09-22T20:00:52.568Z,1.77
2018-09-22T20:03:21.664Z,1.90
2018-09-22T20:05:51.089Z,1.80
2018-09-22T20:08:20.304Z,1.80
2018-09-22T20:10:49.441Z,1.83
2018-09-22T20:13:18.621Z,1.33
2018-09-22T20:15:47.737Z,2.07
2018-09-22T20:18:17.259Z,1.60
2018-09-22T20:20:46.517Z,1.90
2018-09-22T20:23:15.717Z,1.90
2018-09-22T20:25:44.779Z,1.33
2018-09-22T20:28:13.914Z,3.00
2018-09-22T20:30:42.994Z,3.03
2018-09-22T20:33:12.080Z,1.90
2018-09-22T20:35:41.832Z,1.80
2018-09-22T20:38:10.865Z,2.20
2018-09-22T20:40:40.057Z,1.87
2018-09-22T20:43:09.144Z,1.50
2018-09-22T20:45:38.309Z,1.37
2018-09-22T20:48:07.590Z,1.43
2018-09-22T20:50:36.762Z,1.50
2018-09-22T20:53:06.540Z,1.70
2018-09-22T20:55:35.700Z,1.73
2018-09-22T20:58:04.848Z,1.73
2018-09-22T21:00:34.089Z,1.60
2018-09-22T21:03:03.174Z,1.47
2018-09-22T21:05:32.269Z,1.50
2018-09-22T21:08:01.565Z,1.40
2018-09-22T21:10:30.671Z,1.83
2018-09-22T21:12:59.936Z,1.50
2018-09-22T21:15:29.025Z,1.40
2018-09-22T21:17:58.098Z,2.10
2018-09-22T21:20:27.334Z,1.83
2018-09-22T21:22:57.769Z,1.50
2018-09-22T21:25:26.953Z,1.67
2018-09-22T21:27:56.288Z,2.00
2018-09-22T21:30:25.420Z,1.37
2018-09-22T21:32:54.591Z,1.30
2018-09-22T21:35:24.232Z,1.57
2018-09-22T21:37:53.720Z,1.30
2018-09-22T21:40:23.569Z,1.53
2018-09-22T21:42:52.604Z,2.23
2018-09-22T21:45:21.648Z,1.60
2018-09-22T21:47:50.672Z,2.27
2018-09-22T21:50:19.791Z,2.70
2018-09-22T21:52:48.985Z,1.40
2018-09-22T21:55:18.048Z,2.00
2018-09-22T21:57:47.126Z,1.77
2018-09-22T22:00:16.292Z,1.40
2018-09-22T22:02:45.477Z,1.50
2018-09-22T22:05:14.912Z,1.93
2018-09-22T22:07:44.025Z,1.67
2018-09-22T22:10:13.279Z,1.90
2018-09-22T22:12:42.393Z,1.80
2018-09-22T22:15:11.599Z,1.80
2018-09-22T22:17:40.885Z,1.83
2018-09-22T22:20:10.748Z,2.60
2018-09-22T22:22:39.959Z,1.70
2018-09-22T22:25:09.065Z,2.00
2018-09-22T22:27:38.226Z,1.90
2018-09-22T22:30:09.064Z,1.90
2018-09-22T22:32:38.233Z,3.43
2018-09-22T22:35:07.852Z,2.00
2018-09-22T22:37:36.878Z,2.53
2018-09-22T22:40:06.021Z,2.30
2018-09-22T22:42:35.795Z,2.20
2018-09-22T22:45:05.023Z,2.60
2018-09-22T22:47:35.256Z,1.83
2018-09-22T22:50:04.577Z,2.13
2018-09-22T22:52:33.447Z,2.33
2018-09-22T22:55:02.452Z,2.00
2018-09-22T22:57:31.569Z,2.20
2018-09-22T23:00:00.612Z,2.40
2018-09-22T23:02:29.841Z,2.40
2018-09-22T23:04:59.407Z,2.80
2018-09-22T23:07:29.300Z,2.47
2018-09-22T23:09:58.994Z,2.10
2018-09-22T23:12:28.111Z,2.47
2018-09-22T23:14:57.239Z,1.83
2018-09-22T23:17:26.920Z,1.93
2018-09-22T23:19:55.998Z,2.37
2018-09-22T23:22:25.299Z,2.83
2018-09-22T23:24:54.466Z,2.50
2018-09-22T23:27:23.536Z,2.37
2018-09-22T23:29:53.339Z,2.30
2018-09-22T23:32:22.398Z,1.90
2018-09-22T23:34:51.485Z,2.63
2018-09-22T23:37:20.557Z,2.03
2018-09-22T23:39:49.752Z,1.50
2018-09-22T23:42:18.897Z,1.37
2018-09-22T23:44:47.939Z,1.40
2018-09-22T23:47:17.056Z,1.53
2018-09-22T23:49:46.112Z,1.20
2018-09-22T23:52:15.186Z,1.13
2018-09-22T23:54:44.420Z,1.00
2018-09-22T23:57:13.476Z,1.30
2018-09-22T23:59:42.606Z,1.07
